Thunder radar more information blitzortung!


Radar de pluja more information rain snow radar


Visita la nostra xarxa de llocs de meteo:

Template documentation
and downloads

And another site



No particular awareness of the weather is required.    There are no Weather-warnings

Pagina Historial Weather Underground text

Diari Resum Novembre 19, 2017 Unitats:  Imperial    Mètric   Tant
« Previous Dia
SegĂźent Dia »
Diari Setmana Mensual Anual Personalitzada
  Maxima: Minima: Media:
Temperatura: TemperatureC °F 4.5 °F 10.1 °F
Punt de rosada: DewpointC °F -1.3 °F 2.2 °F
Humitat: Humidity % 51 % 58 %
Wind Speed: WindSpeedKMH mph 0.0 mph 3 mph
RĂ fegues de vent: WindSpeedGustKMH mph - -
Vent:- - South
Pression baro: PressurehPa in 1019.9 in -
Precipitacions: 0.0 in    
Historical Graphs
 
 
Dades de taula per Novembre 19, 2017
Temps Temperatura Punt de rosada Pression baro Vent Wind Speed RĂ fegues de vent Humitat Rainfall Rate (Hourly)
TemperatureC °F DewpointC °F PressurehPa in Calm     Humidity % HourlyPrecipMM in
00:00 4.9 °F -1.1 °F 1019.9 in North 1.6 mph 4.8 mph 65 % 0.0 in
00:04 7.2 °F -1.0 °F 1021.9 in WSW 3.7 mph 3.7 mph 56 % 0.0 in
00:09 7.2 °F -1.0 °F 1021.9 in WSW 3.7 mph 3.7 mph 56 % 0.0 in
00:10 4.8 °F -1.2 °F 1019.9 in North 3.2 mph 3.2 mph 65 % 0.0 in
00:14 7.4 °F -0.8 °F 1021.9 in WSW 3.7 mph 3.7 mph 56 % 0.0 in
00:19 7.2 °F -1.0 °F 1020.9 in NNE 1.9 mph 1.9 mph 56 % 0.0 in
00:20 5.1 °F -0.9 °F 1019.9 in NW 3.2 mph 4.8 mph 65 % 0.0 in
00:24 7.4 °F -0.8 °F 1020.9 in WNW 3.7 mph 3.7 mph 56 % 0.0 in
00:29 7.5 °F -0.5 °F 1020.9 in WNW 1.9 mph   57 % 0.0 in
00:30 5.1 °F -0.9 °F 1019.9 in NNW 1.6 mph 3.2 mph 65 % 0.0 in
00:34 7.4 °F -0.6 °F 1020.9 in Calm     57 % 0.0 in
00:39 7.3 °F -0.7 °F 1020.9 in Calm     57 % 0.0 in
00:40 5.1 °F -0.9 °F 1019.9 in NNW 3.2 mph 4.8 mph 65 % 0.0 in
00:44 7.3 °F -0.7 °F 1020.9 in WNW 1.9 mph 1.9 mph 57 % 0.0 in
00:49 7.3 °F -0.7 °F 1020.9 in Calm     57 % 0.0 in
00:50 4.8 °F -1.2 °F 1019.9 in NW 1.6 mph 3.2 mph 65 % 0.0 in
01:10 4.7 °F -1.3 °F 1019.9 in West 3.2 mph 3.2 mph 65 % 0.0 in
01:20 4.8 °F -1.0 °F 1019.9 in West 1.6 mph 3.2 mph 66 % 0.0 in
01:40 4.9 °F -0.9 °F 1019.9 in NW 1.6 mph 4.8 mph 66 % 0.0 in
01:50 5.1 °F -0.7 °F 1019.9 in NNE 4.8 mph 6.4 mph 66 % 0.0 in
02:00 5.0 °F -0.8 °F 1020.9 in Calm   6.4 mph 66 % 0.0 in
02:10 5.1 °F -0.7 °F 1020.9 in North 3.2 mph 4.8 mph 66 % 0.0 in
02:40 6.0 °F 0.1 °F 1021.9 in NE 1.6 mph 3.2 mph 66 % 0.0 in
03:00 6.1 °F 0.0 °F 1021.9 in NNE 4.8 mph 4.8 mph 65 % 0.0 in
03:10 6.3 °F 0.2 °F 1021.9 in NNE 3.2 mph 6.4 mph 65 % 0.0 in
03:20 6.6 °F 0.5 °F 1021.9 in North 3.2 mph 4.8 mph 65 % 0.0 in
03:30 7.0 °F 0.7 °F 1021.9 in North 3.2 mph 4.8 mph 64 % 0.0 in
03:50 7.5 °F 1.1 °F 1021.9 in North 3.2 mph 4.8 mph 64 % 0.0 in
04:00 8.0 °F 1.4 °F 1021.9 in NNE 3.2 mph 6.4 mph 63 % 0.0 in
04:10 8.6 °F 1.9 °F 1022.9 in NNE 1.6 mph 3.2 mph 63 % 0.0 in
04:20 8.8 °F 1.9 °F 1022.9 in NNE 3.2 mph 6.4 mph 62 % 0.0 in
04:30 9.1 °F 2.2 °F 1022.9 in NNE 3.2 mph 4.8 mph 62 % 0.0 in
04:40 9.3 °F 2.2 °F 1022.9 in North 4.8 mph 4.8 mph 61 % 0.0 in
04:50 9.2 °F 2.1 °F 1022.9 in NNE 4.8 mph 6.4 mph 61 % 0.0 in
05:00 9.7 °F 2.6 °F 1022.9 in NNE 4.8 mph 9.7 mph 61 % 0.0 in
11:10 10.2 °F 2.8 °F 1022.9 in NE 5.8 mph 5.8 mph 60 % 0.0 in
11:15 10.3 °F 2.9 °F 1022.9 in NNE 7.4 mph 7.4 mph 60 % 0.0 in
11:20 10.5 °F 3.1 °F 1023.9 in ENE 5.8 mph 5.8 mph 60 % 0.0 in
11:30 10.8 °F 3.1 °F 1023.9 in ENE 7.4 mph 7.4 mph 59 % 0.0 in
11:35 11.0 °F 3.3 °F 1022.9 in North 6.4 mph 6.4 mph 59 % 0.0 in
11:40 11.0 °F 3.1 °F 1022.9 in ENE 9.3 mph 9.3 mph 58 % 0.0 in
11:45 11.3 °F 3.6 °F 1022.9 in ENE 3.7 mph 3.7 mph 59 % 0.0 in
11:50 11.5 °F 3.5 °F 1022.9 in ENE 5.6 mph 5.6 mph 58 % 0.0 in
12:05 12.0 °F 4.0 °F 1022.9 in NNE 3.7 mph 3.7 mph 58 % 0.0 in
12:10 12.2 °F 3.9 °F 1022.9 in ENE 5.6 mph 5.6 mph 57 % 0.0 in
12:15 12.3 °F 4.0 °F 1022.9 in ESE 9.3 mph 9.3 mph 57 % 0.0 in
12:20 12.5 °F 4.2 °F 1022.9 in NNE 5.6 mph 5.6 mph 57 % 0.0 in
12:30 12.7 °F 4.2 °F 1022.9 in North 7.4 mph 7.4 mph 56 % 0.0 in
12:45 13.0 °F 4.4 °F 1022.9 in NNE 5.3 mph 5.3 mph 56 % 0.0 in
12:50 13.3 °F 4.7 °F 1022.9 in NNE 3.7 mph 3.7 mph 56 % 0.0 in
12:55 13.3 °F 4.7 °F 1022.9 in North 5.6 mph 5.6 mph 56 % 0.0 in
13:00 13.3 °F 4.4 °F 1022.9 in East 5.6 mph 5.6 mph 55 % 0.0 in
13:10 13.6 °F 4.7 °F 1021.9 in ENE 5.6 mph 5.6 mph 55 % 0.0 in
13:15 13.7 °F 4.8 °F 1021.9 in NNE 7.6 mph 7.6 mph 55 % 0.0 in
13:20 13.8 °F 4.9 °F 1021.9 in NE 5.8 mph 5.8 mph 55 % 0.0 in
13:25 13.9 °F 4.7 °F 1021.9 in North 9.0 mph 9.0 mph 54 % 0.0 in
13:30 13.9 °F 4.7 °F 1021.9 in ESE 5.8 mph 5.8 mph 54 % 0.0 in
13:35 14.0 °F 4.8 °F 1021.9 in ENE 3.7 mph 3.7 mph 54 % 0.0 in
13:40 14.2 °F 5.0 °F 1021.9 in NNW 5.6 mph 5.6 mph 54 % 0.0 in
13:45 14.3 °F 5.1 °F 1021.9 in NNE 5.6 mph 5.6 mph 54 % 0.0 in
13:50 14.3 °F 5.1 °F 1021.9 in NNW 3.7 mph 3.7 mph 54 % 0.0 in
14:00 14.4 °F 5.2 °F 1021.9 in NE 3.7 mph 3.7 mph 54 % 0.0 in
14:05 14.6 °F 5.4 °F 1021.9 in NNE 7.4 mph 7.4 mph 54 % 0.0 in
14:10 14.6 °F 5.4 °F 1021.9 in NNE 6.4 mph 6.4 mph 54 % 0.0 in
14:15 14.7 °F 5.5 °F 1021.9 in North 4.7 mph 4.7 mph 54 % 0.0 in
14:20 14.8 °F 5.6 °F 1021.9 in NE 3.7 mph 3.7 mph 54 % 0.0 in
14:35 15.0 °F 5.5 °F 1021.9 in NNE 3.9 mph 3.9 mph 53 % 0.0 in
14:40 15.0 °F 5.5 °F 1021.9 in NNE 7.4 mph 7.4 mph 53 % 0.0 in
14:50 15.0 °F 5.5 °F 1020.9 in NNE 7.4 mph 7.4 mph 53 % 0.0 in
14:55 15.1 °F 5.6 °F 1020.9 in ENE 3.5 mph   53 % 0.0 in
15:00 15.2 °F 5.7 °F 1020.9 in ENE 5.6 mph 5.6 mph 53 % 0.0 in
15:05 15.3 °F 5.8 °F 1021.9 in NNE 1.9 mph   53 % 0.0 in
15:10 15.3 °F 5.8 °F 1021.9 in NE 3.7 mph 3.7 mph 53 % 0.0 in
15:15 15.4 °F 5.6 °F 1021.9 in ENE 2.3 mph 2.3 mph 52 % 0.0 in
15:20 15.4 °F 5.6 °F 1021.9 in NNE 5.6 mph 5.6 mph 52 % 0.0 in
15:25 15.4 °F 5.6 °F 1021.9 in NE 2.6 mph 2.6 mph 52 % 0.0 in
15:30 15.4 °F 5.6 °F 1021.9 in NNE 3.7 mph 3.7 mph 52 % 0.0 in
15:35 15.4 °F 5.6 °F 1020.9 in NNE 3.7 mph 3.7 mph 52 % 0.0 in
15:41 15.5 °F 5.7 °F 1020.9 in NNE 3.7 mph 3.7 mph 52 % 0.0 in
15:46 15.5 °F 5.7 °F 1020.9 in NE 1.9 mph   52 % 0.0 in
15:51 15.6 °F 5.8 °F 1021.9 in North 1.9 mph 1.9 mph 52 % 0.0 in
15:56 15.6 °F 5.8 °F 1021.9 in Calm     52 % 0.0 in
16:01 15.6 °F 5.8 °F 1021.9 in NNE 1.9 mph 1.9 mph 52 % 0.0 in
16:06 15.6 °F 5.5 °F 1021.9 in Calm     51 % 0.0 in
16:11 15.7 °F 5.6 °F 1021.9 in ENE 2.6 mph   51 % 0.0 in
16:16 16.3 °F 6.4 °F 1021.9 in SW 3.7 mph 3.7 mph 52 % 0.0 in
16:21 16.1 °F 5.9 °F 1021.9 in Calm     51 % 0.0 in
16:26 16.1 °F 5.9 °F 1021.9 in SW 1.9 mph 1.9 mph 51 % 0.0 in
16:31 16.2 °F 6.1 °F 1021.9 in Calm     51 % 0.0 in
16:36 16.4 °F 6.5 °F 1021.9 in SW 2.3 mph 2.3 mph 52 % 0.0 in
16:41 16.2 °F 6.3 °F 1021.9 in WNW 3.7 mph 3.7 mph 52 % 0.0 in
16:46 16.2 °F 6.3 °F 1021.9 in WNW 7.4 mph 7.4 mph 52 % 0.0 in
16:51 16.0 °F 5.8 °F 1021.9 in WNW 5.6 mph 5.6 mph 51 % 0.0 in
16:56 15.8 °F 5.7 °F 1021.9 in NNW 3.7 mph 3.7 mph 51 % 0.0 in
17:01 15.5 °F 5.4 °F 1021.9 in West 3.9 mph 3.9 mph 51 % 0.0 in
17:06 15.3 °F 5.2 °F 1021.9 in NW 3.7 mph 3.7 mph 51 % 0.0 in
17:16 14.8 °F 4.8 °F 1021.9 in WNW 3.7 mph 3.7 mph 51 % 0.0 in
17:21 14.6 °F 4.6 °F 1021.9 in NW 1.9 mph   51 % 0.0 in
17:31 14.0 °F 4.0 °F 1021.9 in WNW 5.6 mph 5.6 mph 51 % 0.0 in
17:36 13.8 °F 3.8 °F 1021.9 in WNW 3.7 mph 3.7 mph 51 % 0.0 in
17:41 13.7 °F 3.7 °F 1021.9 in WNW 1.4 mph   51 % 0.0 in
17:46 13.5 °F 3.8 °F 1021.9 in NW 3.7 mph 3.7 mph 52 % 0.0 in
17:47 13.5 °F 3.8 °F 1021.9 in NW 3.7 mph 3.7 mph 52 % 0.0 in
17:52 13.4 °F 3.7 °F 1021.9 in NW 1.9 mph 1.9 mph 52 % 0.0 in
17:57 13.2 °F 3.6 °F 1021.9 in Calm     52 % 0.0 in
18:02 13.1 °F 3.4 °F 1021.9 in WSW 3.7 mph 3.7 mph 52 % 0.0 in
18:07 12.7 °F 3.1 °F 1022.9 in SW 3.7 mph 3.7 mph 52 % 0.0 in
18:12 12.5 °F 2.9 °F 1022.9 in SW 3.7 mph 3.7 mph 52 % 0.0 in
18:20 7.6 °F 0.8 °F 1023.9 in Calm   6.4 mph 62 % 0.0 in
18:27 12.1 °F 2.6 °F 1022.9 in West 3.7 mph 3.7 mph 52 % 0.0 in
18:30 7.6 °F 0.8 °F 1022.9 in Calm   1.6 mph 62 % 0.0 in
18:32 12.1 °F 2.6 °F 1022.9 in WSW 3.7 mph 3.9 mph 52 % 0.0 in
18:37 12.2 °F 2.9 °F 1022.9 in West 7.4 mph 7.4 mph 53 % 0.0 in
18:40 7.4 °F 0.6 °F 1022.9 in Calm   1.6 mph 62 % 0.0 in
18:42 12.1 °F 2.8 °F 1022.9 in WNW 3.7 mph 3.7 mph 53 % 0.0 in
18:47 12.1 °F 2.8 °F 1022.9 in WSW 5.6 mph 5.6 mph 53 % 0.0 in
18:50 7.1 °F 0.5 °F 1022.9 in Calm   3.2 mph 63 % 0.0 in
18:57 12.0 °F 2.7 °F 1022.9 in WSW 2.3 mph 2.3 mph 53 % 0.0 in
19:00 7.0 °F 0.4 °F 1022.9 in Calm   1.6 mph 63 % 0.0 in
19:10 6.8 °F 0.2 °F 1022.9 in NW 1.6 mph 3.2 mph 63 % 0.0 in
19:12 11.4 °F 2.2 °F 1022.9 in West 2.3 mph 2.3 mph 53 % 0.0 in
19:17 11.3 °F 2.1 °F 1022.9 in SW 3.7 mph 3.7 mph 53 % 0.0 in
19:20 6.7 °F 0.2 °F 1022.9 in North 1.6 mph 1.6 mph 63 % 0.0 in
19:22 11.1 °F 1.9 °F 1022.9 in SW 3.2 mph 3.2 mph 53 % 0.0 in
19:27 11.0 °F 1.8 °F 1022.9 in SW 3.9 mph 3.9 mph 53 % 0.0 in
19:32 10.8 °F 1.6 °F 1022.9 in SW 3.9 mph 3.9 mph 53 % 0.0 in
19:40 6.5 °F 0.2 °F 1022.9 in Calm   1.6 mph 64 % 0.0 in
19:50 6.4 °F 0.1 °F 1022.9 in North 1.6 mph 3.2 mph 64 % 0.0 in
19:52 10.3 °F 1.4 °F 1022.9 in WSW 3.9 mph 3.9 mph 54 % 0.0 in
20:00 6.0 °F -0.3 °F 1022.9 in Calm   1.6 mph 64 % 0.0 in
20:02 10.0 °F 1.1 °F 1022.9 in WSW 3.7 mph 3.7 mph 54 % 0.0 in
20:07 9.9 °F 1.0 °F 1022.9 in WSW 1.9 mph 2.3 mph 54 % 0.0 in
20:10 6.0 °F -0.1 °F 1023.9 in Calm     65 % 0.0 in
20:12 9.7 °F 1.1 °F 1022.9 in Calm     55 % 0.0 in
20:20 6.0 °F -0.1 °F 1023.9 in West 1.6 mph 1.6 mph 65 % 0.0 in
20:30 5.9 °F -0.2 °F 1023.9 in Calm   1.6 mph 65 % 0.0 in
20:32 9.4 °F 0.8 °F 1023.9 in Calm     55 % 0.0 in
20:37 9.3 °F 0.9 °F 1023.9 in Calm     56 % 0.0 in
20:40 5.8 °F -0.3 °F 1023.9 in West 1.6 mph 3.2 mph 65 % 0.0 in
20:42 9.2 °F 0.9 °F 1023.9 in WSW 1.9 mph   56 % 0.0 in
20:47 9.2 °F 0.9 °F 1023.9 in WSW 3.7 mph 3.7 mph 56 % 0.0 in
20:50 5.6 °F -0.4 °F 1023.9 in West 1.6 mph 3.2 mph 65 % 0.0 in
20:52 9.1 °F 0.8 °F 1023.9 in SW 1.9 mph   56 % 0.0 in
20:57 9.0 °F 0.7 °F 1023.9 in SW 1.9 mph   56 % 0.0 in
21:00 5.7 °F -0.2 °F 1023.9 in WSW 1.6 mph 3.2 mph 66 % 0.0 in
21:02 9.0 °F 0.7 °F 1023.9 in WSW 3.7 mph 3.7 mph 56 % 0.0 in
21:07 9.0 °F 0.7 °F 1023.9 in WSW 3.7 mph 3.7 mph 56 % 0.0 in
21:12 8.9 °F 0.8 °F 1023.9 in SW 4.2 mph 4.2 mph 57 % 0.0 in
21:17 8.8 °F 0.7 °F 1023.9 in WSW 3.2 mph 3.2 mph 57 % 0.0 in
21:20 5.5 °F -0.2 °F 1022.9 in Calm     67 % 0.0 in
21:27 8.7 °F 0.7 °F 1023.9 in SW 3.7 mph 3.7 mph 57 % 0.0 in
21:32 8.8 °F 0.7 °F 1022.9 in SW 3.7 mph 3.7 mph 57 % 0.0 in
21:40 5.5 °F -0.2 °F 1023.9 in Calm   1.6 mph 67 % 0.0 in
21:43 8.7 °F 0.9 °F 1022.9 in Calm     58 % 0.0 in
21:48 8.6 °F 0.8 °F 1023.9 in Calm     58 % 0.0 in
21:50 5.2 °F -0.7 °F 1023.9 in WSW 1.6 mph 3.2 mph 66 % 0.0 in
21:53 8.5 °F 0.7 °F 1023.9 in WSW 3.7 mph 3.7 mph 58 % 0.0 in
21:58 8.3 °F 0.5 °F 1023.9 in WSW 3.7 mph 3.7 mph 58 % 0.0 in
22:03 8.3 °F 0.5 °F 1023.9 in WSW 3.7 mph 3.7 mph 58 % 0.0 in
22:08 8.2 °F 0.7 °F 1023.9 in WSW 3.7 mph 3.7 mph 59 % 0.0 in
22:10 5.1 °F -0.6 °F 1022.9 in WSW 1.6 mph 3.2 mph 67 % 0.0 in
22:13 8.2 °F 0.7 °F 1023.9 in WSW 3.7 mph 3.7 mph 59 % 0.0 in
22:18 8.1 °F 0.6 °F 1023.9 in WSW 1.9 mph   59 % 0.0 in
22:23 8.0 °F 0.4 °F 1023.9 in WSW 2.3 mph 2.3 mph 59 % 0.0 in
22:28 7.8 °F 0.5 °F 1023.9 in SW 3.7 mph 3.7 mph 60 % 0.0 in
22:30 4.9 °F -0.5 °F 1022.9 in Calm     68 % 0.0 in
22:33 7.7 °F 0.4 °F 1023.9 in WSW 3.7 mph 3.7 mph 60 % 0.0 in
22:40 4.9 °F -0.3 °F 1022.9 in WSW 3.2 mph 3.2 mph 69 % 0.0 in
22:43 7.6 °F 0.6 °F 1023.9 in Calm     61 % 0.0 in
22:48 7.6 °F 0.6 °F 1023.9 in Calm     61 % 0.0 in
22:49 7.5 °F 0.4 °F 1023.9 in Calm     61 % 0.0 in
22:50 5.0 °F -0.2 °F 1022.9 in Calm   1.6 mph 69 % 0.0 in
22:54 7.5 °F 0.4 °F 1023.9 in Calm     61 % 0.0 in
23:00 4.8 °F -0.6 °F 1022.9 in NW 1.6 mph 3.2 mph 68 % 0.0 in
23:04 7.6 °F 0.6 °F 1023.9 in Calm     61 % 0.0 in
23:10 4.8 °F -0.6 °F 1023.9 in Calm   3.2 mph 68 % 0.0 in
23:19 7.6 °F 0.6 °F 1022.9 in NNW 2.3 mph 2.3 mph 61 % 0.0 in
23:20 4.8 °F -0.4 °F 1023.9 in Calm   1.6 mph 69 % 0.0 in
23:29 7.7 °F 0.7 °F 1022.9 in West 3.7 mph 3.7 mph 61 % 0.0 in
23:30 4.7 °F -0.5 °F 1023.9 in Calm   3.2 mph 69 % 0.0 in
23:40 4.6 °F -0.6 °F 1023.9 in Calm     69 % 0.0 in
23:44 7.5 °F 0.7 °F 1022.9 in WSW 1.9 mph 2.3 mph 62 % 0.0 in
23:50 4.5 °F -0.7 °F 1023.9 in NW 1.6 mph 3.2 mph 69 % 0.0 in
23:54 7.5 °F 0.7 °F 1022.9 in West 3.9 mph 3.9 mph 62 % 0.0 in
Meteo Sesrovires
Elogis d' Weather Underground - 2 mb

Guio original per  Jim McMurry - jmcmurry@mwt.net Adaptat per a la plantilla per  Wim van der Kuil - Leuven-Template.eu

Trobareu la nostra informacio del temps tambe a:

Weather Underground

AWEKAS